AVA9845 SKCG-SKBG
Flight info
| Callsign | AVA9845 |
|---|---|
| Flight time | 0h 45m |
| Altitude | 35000 |
| Route | ILMIK2A ILMIK DCT UGREB W10 MGN W35 IVRIK IVRIK1B |
| Aircraft | A320/M-SDE3FGHIRWY/LB1 |
Departure
| Time | 2026-04-25 01:30 |
|---|---|
| Airport | Rafael Nuñez International Airport (SKCG) |
Arrival
| Time | 2026-04-25 02:15 |
|---|---|
| Airport | Palonegro Airport (SKBG) |
| Time | Latitude | Longitude | Altitude | Speed | Heading |
|---|---|---|---|---|---|
| 2026-04-25 01:13 | 10.44563 | -75.51572 | -13 ft | 0 kts | 272° |
| 2026-04-25 01:21 | 10.44563 | -75.51568 | -13 ft | 3 kts | 272° |
| 2026-04-25 01:21 | 10.44562 | -75.51541 | 16 ft | 4 kts | 270° |
| 2026-04-25 01:21 | 10.44563 | -75.51514 | 17 ft | 4 kts | 265° |
| 2026-04-25 01:21 | 10.44566 | -75.51487 | 15 ft | 4 kts | 253° |
| 2026-04-25 01:22 | 10.44578 | -75.51465 | 16 ft | 4 kts | 203° |
| 2026-04-25 01:22 | 10.44575 | -75.51462 | 16 ft | 4 kts | 172° |
| 2026-04-25 01:22 | 10.44554 | -75.51448 | 16 ft | 4 kts | 130° |
| 2026-04-25 01:22 | 10.44547 | -75.51423 | 14 ft | 4 kts | 94° |
| 2026-04-25 01:23 | 10.44547 | -75.51416 | 14 ft | 0 kts | 91° |
| 2026-04-25 01:25 | 10.44547 | -75.51404 | 14 ft | 8 kts | 91° |
| 2026-04-25 01:25 | 10.44546 | -75.51324 | 15 ft | 11 kts | 91° |
| 2026-04-25 01:25 | 10.44500 | -75.51282 | 15 ft | 9 kts | 177° |
| 2026-04-25 01:25 | 10.44433 | -75.51284 | 15 ft | 13 kts | 182° |
| 2026-04-25 01:26 | 10.44295 | -75.51290 | 14 ft | 28 kts | 183° |
| 2026-04-25 01:26 | 10.44069 | -75.51302 | 15 ft | 34 kts | 181° |
| 2026-04-25 01:26 | 10.43831 | -75.51309 | 13 ft | 35 kts | 181° |
| 2026-04-25 01:26 | 10.43586 | -75.51317 | 14 ft | 35 kts | 182° |
| 2026-04-25 01:27 | 10.43346 | -75.51326 | 17 ft | 35 kts | 182° |
| 2026-04-25 01:27 | 10.43205 | -75.51289 | 16 ft | 16 kts | 133° |
| 2026-04-25 01:27 | 10.43112 | -75.51236 | 15 ft | 14 kts | 184° |
| 2026-04-25 01:28 | 10.43076 | -75.51264 | 16 ft | 0 kts | 258° |
| 2026-04-25 01:28 | 10.43074 | -75.51280 | 16 ft | 10 kts | 266° |
| 2026-04-25 01:28 | 10.43104 | -75.51342 | 17 ft | 8 kts | 355° |
| 2026-04-25 01:28 | 10.43148 | -75.51337 | 16 ft | 0 kts | 359° |
| 2026-04-25 01:29 | 10.43150 | -75.51337 | 16 ft | 5 kts | 359° |
| 2026-04-25 01:29 | 10.43465 | -75.51325 | 17 ft | 84 kts | 2° |
| 2026-04-25 01:29 | 10.44268 | -75.51291 | 16 ft | 144 kts | 2° |
| 2026-04-25 01:29 | 10.45333 | -75.51246 | 533 ft | 152 kts | 2° |
| 2026-04-25 01:30 | 10.46415 | -75.51206 | 1133 ft | 159 kts | 1° |
| 2026-04-25 01:30 | 10.47538 | -75.51169 | 1749 ft | 164 kts | 1° |
| 2026-04-25 01:30 | 10.48726 | -75.51132 | 2178 ft | 181 kts | 2° |
| 2026-04-25 01:30 | 10.50031 | -75.50988 | 2547 ft | 199 kts | 20° |
| 2026-04-25 01:31 | 10.51075 | -75.50022 | 2805 ft | 218 kts | 66° |
| 2026-04-25 01:31 | 10.51184 | -75.48468 | 3343 ft | 226 kts | 110° |
| 2026-04-25 01:31 | 10.50247 | -75.47217 | 4157 ft | 228 kts | 149° |
| 2026-04-25 01:31 | 10.49290 | -75.46747 | 4652 ft | 232 kts | 160° |
| 2026-04-25 01:32 | 10.47218 | -75.46114 | 5771 ft | 234 kts | 167° |
| 2026-04-25 01:32 | 10.45633 | -75.45699 | 6566 ft | 237 kts | 167° |
| 2026-04-25 01:32 | 10.44030 | -75.45263 | 7339 ft | 240 kts | 166° |
| 2026-04-25 01:32 | 10.42417 | -75.44790 | 8126 ft | 243 kts | 165° |
| 2026-04-25 01:33 | 10.40817 | -75.44292 | 8910 ft | 245 kts | 164° |
| 2026-04-25 01:33 | 10.39170 | -75.43727 | 9502 ft | 260 kts | 161° |
| 2026-04-25 01:33 | 10.37405 | -75.43039 | 9845 ft | 284 kts | 160° |
| 2026-04-25 01:33 | 10.35520 | -75.42262 | 10255 ft | 302 kts | 159° |
| 2026-04-25 01:34 | 10.33502 | -75.41413 | 10538 ft | 326 kts | 158° |
| 2026-04-25 01:34 | 10.31350 | -75.40504 | 10960 ft | 341 kts | 158° |
| 2026-04-25 01:34 | 10.29135 | -75.39574 | 11638 ft | 347 kts | 159° |
| 2026-04-25 01:34 | 10.27621 | -75.38943 | 12125 ft | 350 kts | 159° |
| 2026-04-25 01:35 | 10.25457 | -75.37781 | 12829 ft | 355 kts | 147° |
| 2026-04-25 01:35 | 10.23387 | -75.36385 | 13546 ft | 359 kts | 147° |
| 2026-04-25 01:35 | 10.21302 | -75.34968 | 14185 ft | 363 kts | 147° |
| 2026-04-25 01:35 | 10.19198 | -75.33530 | 14794 ft | 366 kts | 147° |
| 2026-04-25 01:36 | 10.17075 | -75.32078 | 15412 ft | 370 kts | 147° |
| 2026-04-25 01:36 | 10.14931 | -75.30615 | 16016 ft | 373 kts | 147° |
| 2026-04-25 01:36 | 10.12793 | -75.29157 | 16606 ft | 377 kts | 147° |
| 2026-04-25 01:36 | 10.10604 | -75.27666 | 17206 ft | 381 kts | 147° |
| 2026-04-25 01:37 | 10.08391 | -75.26163 | 17806 ft | 384 kts | 147° |
| 2026-04-25 01:37 | 10.06159 | -75.24650 | 18351 ft | 388 kts | 147° |
| 2026-04-25 01:37 | 10.03906 | -75.23123 | 18857 ft | 391 kts | 147° |
| 2026-04-25 01:37 | 10.01634 | -75.21582 | 19345 ft | 395 kts | 147° |
| 2026-04-25 01:38 | 9.99342 | -75.20027 | 19833 ft | 398 kts | 147° |
| 2026-04-25 01:38 | 9.97032 | -75.18460 | 20320 ft | 401 kts | 147° |
| 2026-04-25 01:38 | 9.94701 | -75.16878 | 20794 ft | 405 kts | 147° |
| 2026-04-25 01:38 | 9.92355 | -75.15283 | 21255 ft | 408 kts | 147° |
| 2026-04-25 01:39 | 9.89989 | -75.13674 | 21723 ft | 411 kts | 147° |
| 2026-04-25 01:39 | 9.87603 | -75.12056 | 22158 ft | 414 kts | 147° |
| 2026-04-25 01:39 | 9.85199 | -75.10429 | 22613 ft | 417 kts | 147° |
| 2026-04-25 01:39 | 9.82777 | -75.08789 | 23068 ft | 420 kts | 147° |
| 2026-04-25 01:40 | 9.80339 | -75.07137 | 23509 ft | 423 kts | 147° |
| 2026-04-25 01:40 | 9.77885 | -75.05474 | 23869 ft | 426 kts | 147° |
| 2026-04-25 01:40 | 9.75418 | -75.03804 | 24252 ft | 427 kts | 147° |
| 2026-04-25 01:40 | 9.72942 | -75.02127 | 24644 ft | 429 kts | 147° |
| 2026-04-25 01:41 | 9.70456 | -75.00441 | 25053 ft | 430 kts | 147° |
| 2026-04-25 01:41 | 9.67968 | -74.98752 | 25455 ft | 431 kts | 147° |
| 2026-04-25 01:41 | 9.65470 | -74.97059 | 25855 ft | 433 kts | 147° |
| 2026-04-25 01:41 | 9.62965 | -74.95362 | 26247 ft | 434 kts | 148° |
| 2026-04-25 01:42 | 9.60453 | -74.93659 | 26633 ft | 435 kts | 148° |
| 2026-04-25 01:42 | 9.57931 | -74.91948 | 27012 ft | 437 kts | 148° |
| 2026-04-25 01:42 | 9.55405 | -74.90236 | 27397 ft | 438 kts | 148° |
| 2026-04-25 01:42 | 9.52866 | -74.88518 | 27764 ft | 439 kts | 148° |
| 2026-04-25 01:43 | 9.50354 | -74.86819 | 28128 ft | 441 kts | 148° |
| 2026-04-25 01:43 | 9.47802 | -74.85093 | 28525 ft | 441 kts | 148° |
| 2026-04-25 01:43 | 9.45249 | -74.83366 | 28918 ft | 442 kts | 148° |
| 2026-04-25 01:43 | 9.42686 | -74.81632 | 29283 ft | 443 kts | 148° |
| 2026-04-25 01:44 | 9.40115 | -74.79893 | 29638 ft | 445 kts | 148° |
| 2026-04-25 01:44 | 9.37537 | -74.78152 | 29971 ft | 446 kts | 148° |
| 2026-04-25 01:44 | 9.34949 | -74.76405 | 30257 ft | 448 kts | 148° |
| 2026-04-25 01:44 | 9.32355 | -74.74653 | 30529 ft | 449 kts | 148° |
| 2026-04-25 01:45 | 9.29753 | -74.72894 | 30805 ft | 450 kts | 148° |
| 2026-04-25 01:45 | 9.27140 | -74.71130 | 31075 ft | 452 kts | 148° |
| 2026-04-25 01:45 | 9.24522 | -74.69364 | 31340 ft | 453 kts | 148° |
| 2026-04-25 01:45 | 9.21897 | -74.67592 | 31637 ft | 453 kts | 148° |
| 2026-04-25 01:46 | 9.19279 | -74.65820 | 32031 ft | 452 kts | 148° |
| 2026-04-25 01:46 | 9.16671 | -74.64054 | 32410 ft | 450 kts | 148° |
| 2026-04-25 01:46 | 9.14071 | -74.62298 | 32805 ft | 449 kts | 148° |
| 2026-04-25 01:46 | 9.11477 | -74.60547 | 33189 ft | 447 kts | 148° |
| 2026-04-25 01:47 | 9.08931 | -74.58829 | 33611 ft | 445 kts | 148° |
| 2026-04-25 01:47 | 9.06363 | -74.57097 | 34003 ft | 443 kts | 148° |
| 2026-04-25 01:47 | 9.03802 | -74.55371 | 34359 ft | 441 kts | 148° |
| 2026-04-25 01:47 | 9.01252 | -74.53654 | 34695 ft | 440 kts | 148° |
| 2026-04-25 01:48 | 8.98702 | -74.51937 | 34885 ft | 440 kts | 148° |
| 2026-04-25 01:48 | 8.96168 | -74.50232 | 34933 ft | 435 kts | 148° |
| 2026-04-25 01:48 | 8.91160 | -74.46864 | 34934 ft | 431 kts | 148° |
| 2026-04-25 01:49 | 8.86174 | -74.43500 | 34931 ft | 431 kts | 148° |
| 2026-04-25 01:49 | 8.81187 | -74.40139 | 34931 ft | 431 kts | 148° |
| 2026-04-25 01:50 | 8.76201 | -74.36779 | 34934 ft | 431 kts | 148° |
| 2026-04-25 01:50 | 8.71212 | -74.33424 | 34938 ft | 431 kts | 148° |
| 2026-04-25 01:51 | 8.66225 | -74.30072 | 34936 ft | 430 kts | 148° |
| 2026-04-25 01:51 | 8.61274 | -74.26739 | 34935 ft | 430 kts | 148° |
| 2026-04-25 01:52 | 8.56296 | -74.23384 | 34947 ft | 430 kts | 148° |
| 2026-04-25 01:52 | 8.51314 | -74.20034 | 34944 ft | 430 kts | 148° |
| 2026-04-25 01:53 | 8.46331 | -74.16693 | 34951 ft | 430 kts | 148° |
| 2026-04-25 01:53 | 8.41352 | -74.13350 | 34950 ft | 430 kts | 148° |
| 2026-04-25 01:54 | 8.36378 | -74.10007 | 34947 ft | 429 kts | 148° |
| 2026-04-25 01:54 | 8.31410 | -74.06676 | 34952 ft | 429 kts | 148° |
| 2026-04-25 01:55 | 8.26447 | -74.03343 | 34952 ft | 428 kts | 148° |
| 2026-04-25 01:55 | 8.21484 | -74.00017 | 34951 ft | 428 kts | 148° |
| 2026-04-25 01:56 | 8.16537 | -73.96699 | 34973 ft | 426 kts | 148° |
| 2026-04-25 01:56 | 8.11609 | -73.93388 | 34978 ft | 425 kts | 148° |
| 2026-04-25 01:57 | 8.06672 | -73.90074 | 34092 ft | 428 kts | 148° |
| 2026-04-25 01:57 | 8.04195 | -73.88415 | 33410 ft | 427 kts | 148° |
| 2026-04-25 01:57 | 8.01738 | -73.86755 | 32831 ft | 424 kts | 147° |
| 2026-04-25 01:58 | 7.99306 | -73.85087 | 32220 ft | 421 kts | 147° |
| 2026-04-25 01:58 | 7.96896 | -73.83423 | 31628 ft | 419 kts | 147° |
| 2026-04-25 01:58 | 7.94491 | -73.81762 | 31040 ft | 418 kts | 147° |
| 2026-04-25 01:58 | 7.92097 | -73.80111 | 30463 ft | 416 kts | 147° |
| 2026-04-25 01:59 | 7.89707 | -73.78469 | 29850 ft | 415 kts | 147° |
| 2026-04-25 01:59 | 7.87322 | -73.76835 | 29245 ft | 413 kts | 147° |
| 2026-04-25 01:59 | 7.84959 | -73.75218 | 28711 ft | 409 kts | 147° |
| 2026-04-25 01:59 | 7.82613 | -73.73614 | 28145 ft | 406 kts | 147° |
| 2026-04-25 02:00 | 7.80286 | -73.72022 | 27615 ft | 403 kts | 146° |
| 2026-04-25 02:00 | 7.77977 | -73.70439 | 27087 ft | 400 kts | 146° |
| 2026-04-25 02:00 | 7.75689 | -73.68867 | 26584 ft | 396 kts | 146° |
| 2026-04-25 02:00 | 7.73447 | -73.67328 | 26088 ft | 394 kts | 146° |
| 2026-04-25 02:01 | 7.71191 | -73.65785 | 25623 ft | 391 kts | 146° |
| 2026-04-25 02:01 | 7.68947 | -73.64253 | 25144 ft | 388 kts | 146° |
| 2026-04-25 02:01 | 7.66719 | -73.62728 | 24686 ft | 386 kts | 146° |
| 2026-04-25 02:01 | 7.64506 | -73.61210 | 24221 ft | 384 kts | 146° |
| 2026-04-25 02:02 | 7.62304 | -73.59698 | 23753 ft | 383 kts | 146° |
| 2026-04-25 02:02 | 7.60104 | -73.58189 | 23235 ft | 382 kts | 146° |
| 2026-04-25 02:02 | 7.57915 | -73.56690 | 22742 ft | 379 kts | 146° |
| 2026-04-25 02:02 | 7.55740 | -73.55202 | 22274 ft | 377 kts | 146° |
| 2026-04-25 02:03 | 7.53580 | -73.53725 | 21794 ft | 375 kts | 146° |
| 2026-04-25 02:03 | 7.51425 | -73.52254 | 21319 ft | 373 kts | 146° |
| 2026-04-25 02:03 | 7.49277 | -73.50789 | 20848 ft | 372 kts | 146° |
| 2026-04-25 02:03 | 7.47135 | -73.49326 | 20364 ft | 372 kts | 146° |
| 2026-04-25 02:04 | 7.44997 | -73.47864 | 19873 ft | 371 kts | 146° |
| 2026-04-25 02:04 | 7.42859 | -73.46399 | 19385 ft | 371 kts | 146° |
| 2026-04-25 02:04 | 7.40727 | -73.44937 | 18916 ft | 371 kts | 146° |
| 2026-04-25 02:04 | 7.38591 | -73.43472 | 18414 ft | 371 kts | 146° |
| 2026-04-25 02:05 | 7.36453 | -73.42010 | 17863 ft | 372 kts | 146° |
| 2026-04-25 02:05 | 7.34312 | -73.40547 | 17362 ft | 371 kts | 146° |
| 2026-04-25 02:05 | 7.32167 | -73.39114 | 16898 ft | 368 kts | 150° |
| 2026-04-25 02:05 | 7.29883 | -73.37969 | 16435 ft | 366 kts | 155° |
| 2026-04-25 02:06 | 7.27586 | -73.36883 | 16003 ft | 364 kts | 155° |
| 2026-04-25 02:06 | 7.25298 | -73.35803 | 15550 ft | 362 kts | 155° |
| 2026-04-25 02:06 | 7.23020 | -73.34729 | 15095 ft | 361 kts | 155° |
| 2026-04-25 02:06 | 7.20748 | -73.33656 | 14634 ft | 360 kts | 156° |
| 2026-04-25 02:07 | 7.18485 | -73.32588 | 14181 ft | 359 kts | 155° |
| 2026-04-25 02:07 | 7.16228 | -73.31520 | 13685 ft | 358 kts | 155° |
| 2026-04-25 02:07 | 7.13984 | -73.30455 | 13197 ft | 355 kts | 155° |
| 2026-04-25 02:07 | 7.11753 | -73.29395 | 12720 ft | 353 kts | 155° |
| 2026-04-25 02:08 | 7.09571 | -73.28360 | 12271 ft | 350 kts | 155° |
| 2026-04-25 02:08 | 7.07377 | -73.27322 | 11792 ft | 347 kts | 155° |
| 2026-04-25 02:08 | 7.05187 | -73.26333 | 11294 ft | 340 kts | 158° |
| 2026-04-25 02:08 | 7.03037 | -73.25476 | 10764 ft | 326 kts | 160° |
| 2026-04-25 02:09 | 7.00943 | -73.24704 | 10279 ft | 315 kts | 160° |
| 2026-04-25 02:09 | 6.98944 | -73.23987 | 10101 ft | 294 kts | 161° |
| 2026-04-25 02:09 | 6.97088 | -73.23319 | 9987 ft | 274 kts | 160° |
| 2026-04-25 02:09 | 6.95437 | -73.22504 | 9673 ft | 262 kts | 141° |
| 2026-04-25 02:10 | 6.94281 | -73.21093 | 9086 ft | 263 kts | 115° |
| 2026-04-25 02:10 | 6.93837 | -73.19323 | 8503 ft | 263 kts | 90° |
| 2026-04-25 02:10 | 6.94161 | -73.17536 | 8019 ft | 258 kts | 69° |
| 2026-04-25 02:10 | 6.94803 | -73.15856 | 7452 ft | 258 kts | 69° |
| 2026-04-25 02:11 | 6.95552 | -73.14271 | 7263 ft | 241 kts | 51° |
| 2026-04-25 02:11 | 6.96809 | -73.13302 | 7213 ft | 220 kts | 20° |
| 2026-04-25 02:11 | 6.98258 | -73.13112 | 6925 ft | 208 kts | 351° |
| 2026-04-25 02:11 | 6.99603 | -73.13548 | 6585 ft | 200 kts | 339° |
| 2026-04-25 02:12 | 7.00883 | -73.14038 | 6268 ft | 194 kts | 339° |
| 2026-04-25 02:12 | 7.02113 | -73.14503 | 5973 ft | 183 kts | 339° |
| 2026-04-25 02:12 | 7.03268 | -73.14938 | 5701 ft | 172 kts | 339° |
| 2026-04-25 02:12 | 7.04364 | -73.15351 | 5483 ft | 162 kts | 340° |
| 2026-04-25 02:13 | 7.05388 | -73.15737 | 5250 ft | 154 kts | 340° |
| 2026-04-25 02:13 | 7.06377 | -73.16110 | 5033 ft | 150 kts | 340° |
| 2026-04-25 02:13 | 7.07350 | -73.16477 | 4827 ft | 149 kts | 339° |
| 2026-04-25 02:13 | 7.08315 | -73.16840 | 4609 ft | 147 kts | 339° |
| 2026-04-25 02:14 | 7.09268 | -73.17199 | 4410 ft | 146 kts | 339° |
| 2026-04-25 02:14 | 7.10214 | -73.17556 | 4194 ft | 145 kts | 339° |
| 2026-04-25 02:14 | 7.11153 | -73.17913 | 4017 ft | 145 kts | 339° |
| 2026-04-25 02:14 | 7.12093 | -73.18268 | 3888 ft | 139 kts | 338° |
| 2026-04-25 02:15 | 7.12840 | -73.18550 | 3908 ft | 77 kts | 339° |
| 2026-04-25 02:15 | 7.13130 | -73.18659 | 3911 ft | 31 kts | 340° |
| 2026-04-25 02:15 | 7.13205 | -73.18654 | 3911 ft | 6 kts | 95° |
| 2026-04-25 02:15 | 7.13191 | -73.18617 | 3911 ft | 5 kts | 112° |
| 2026-04-25 02:16 | 7.13181 | -73.18593 | 3911 ft | 3 kts | 115° |
| 2026-04-25 02:16 | 7.13157 | -73.18566 | 3911 ft | 11 kts | 143° |
| 2026-04-25 02:16 | 7.13078 | -73.18535 | 3911 ft | 12 kts | 159° |
| 2026-04-25 02:16 | 7.13009 | -73.18507 | 3909 ft | 10 kts | 158° |
| 2026-04-25 02:17 | 7.12949 | -73.18483 | 3908 ft | 9 kts | 158° |
| 2026-04-25 02:17 | 7.12893 | -73.18462 | 3907 ft | 8 kts | 160° |
| 2026-04-25 02:17 | 7.12843 | -73.18443 | 3905 ft | 8 kts | 160° |
| 2026-04-25 02:17 | 7.12793 | -73.18425 | 3908 ft | 8 kts | 160° |
| 2026-04-25 02:18 | 7.12750 | -73.18393 | 3905 ft | 8 kts | 117° |
| 2026-04-25 02:18 | 7.12739 | -73.18339 | 3902 ft | 8 kts | 100° |
| 2026-04-25 02:18 | 7.12722 | -73.18292 | 3901 ft | 7 kts | 129° |
| 2026-04-25 02:18 | 7.12700 | -73.18253 | 3903 ft | 6 kts | 103° |
| 2026-04-25 02:19 | 7.12693 | -73.18218 | 3904 ft | 4 kts | 98° |
| 2026-04-25 02:19 | 7.12709 | -73.18204 | 3901 ft | 4 kts | 24° |
| 2026-04-25 02:19 | 7.12734 | -73.18198 | 3904 ft | 1 kts | 12° |
| 2026-04-25 02:19 | 7.12738 | -73.18197 | 3905 ft | 0 kts | 11° |
| 2026-04-25 02:20 | 7.12741 | -73.18196 | 3905 ft | 0 kts | 11° |